createdAt,value
2018-06-03T00:01:56.773Z,18.40
2018-06-03T00:04:07.908Z,18.32
2018-06-03T00:06:18.995Z,18.30
2018-06-03T00:08:30.114Z,18.29
2018-06-03T00:10:41.305Z,18.19
2018-06-03T00:12:52.458Z,18.03
2018-06-03T00:15:03.632Z,17.96
2018-06-03T00:17:14.772Z,17.90
2018-06-03T00:19:25.960Z,17.87
2018-06-03T00:21:42.134Z,17.85
2018-06-03T00:23:53.246Z,17.83
2018-06-03T00:26:04.352Z,17.88
2018-06-03T00:28:15.570Z,17.90
2018-06-03T00:30:26.643Z,17.91
2018-06-03T00:32:37.766Z,17.97
2018-06-03T00:34:48.835Z,18.00
2018-06-03T00:36:59.930Z,17.97
2018-06-03T00:39:11.018Z,17.89
2018-06-03T00:41:22.128Z,17.86
2018-06-03T00:43:33.350Z,17.85
2018-06-03T00:45:44.473Z,17.83
2018-06-03T00:47:55.635Z,17.78
2018-06-03T00:50:06.715Z,17.75
2018-06-03T00:52:17.802Z,17.75
2018-06-03T00:54:28.882Z,17.79
2018-06-03T00:56:52.175Z,17.84
2018-06-03T00:59:03.242Z,17.87
2018-06-03T01:01:14.325Z,17.81
2018-06-03T01:03:25.427Z,17.81
2018-06-03T01:05:36.507Z,17.77
2018-06-03T01:07:47.619Z,17.67
2018-06-03T01:09:58.677Z,17.57
2018-06-03T01:12:09.789Z,17.50
2018-06-03T01:14:20.913Z,17.49
2018-06-03T01:16:32.075Z,17.45
2018-06-03T01:18:43.226Z,17.41
2018-06-03T01:20:54.314Z,17.42
2018-06-03T01:23:05.363Z,17.44
2018-06-03T01:25:16.529Z,17.40
2018-06-03T01:27:27.751Z,17.38
2018-06-03T01:29:38.884Z,17.38
2018-06-03T01:31:50.122Z,17.41
2018-06-03T01:34:01.287Z,17.46
2018-06-03T01:36:12.354Z,17.51
2018-06-03T01:38:23.439Z,17.51
2018-06-03T01:40:34.581Z,17.46
2018-06-03T01:42:45.726Z,17.38
2018-06-03T01:44:56.891Z,17.35
2018-06-03T01:47:08.010Z,17.32
2018-06-03T01:49:19.099Z,17.30
2018-06-03T01:51:30.199Z,17.21
2018-06-03T01:53:41.276Z,17.16
2018-06-03T01:55:52.429Z,17.18
2018-06-03T01:58:03.514Z,17.18
2018-06-03T02:00:14.603Z,17.17
2018-06-03T02:02:25.790Z,17.20
2018-06-03T02:04:36.891Z,17.20
2018-06-03T02:06:48.219Z,17.17
2018-06-03T02:08:59.339Z,17.17
2018-06-03T02:11:10.447Z,17.14
2018-06-03T02:13:21.523Z,17.09
2018-06-03T02:15:32.660Z,17.10
2018-06-03T02:17:43.778Z,17.07
2018-06-03T02:19:54.902Z,17.01
2018-06-03T02:22:05.969Z,17.03
2018-06-03T02:24:17.059Z,17.04
2018-06-03T02:26:28.243Z,17.03
2018-06-03T02:28:39.350Z,17.03
2018-06-03T02:30:50.566Z,17.01
2018-06-03T02:33:01.660Z,17.03
2018-06-03T02:35:12.758Z,17.03
2018-06-03T02:37:23.830Z,17.02
2018-06-03T02:39:34.953Z,17.01
2018-06-03T02:41:46.067Z,17.01
2018-06-03T02:43:57.163Z,17.02
2018-06-03T02:46:08.348Z,16.98
2018-06-03T02:48:19.447Z,16.95
2018-06-03T02:50:30.531Z,16.94
2018-06-03T02:52:41.594Z,16.89
2018-06-03T02:54:52.779Z,16.88
2018-06-03T02:57:03.919Z,16.93
2018-06-03T02:59:14.994Z,17.03
2018-06-03T03:01:26.160Z,17.11
2018-06-03T03:03:37.251Z,17.11
2018-06-03T03:05:48.459Z,17.05
2018-06-03T03:07:59.543Z,17.02
2018-06-03T03:10:10.798Z,16.97
2018-06-03T03:12:21.869Z,16.95
2018-06-03T03:14:32.995Z,16.92
2018-06-03T03:16:44.075Z,16.91
2018-06-03T03:18:55.204Z,16.90
2018-06-03T03:21:06.351Z,16.83
2018-06-03T03:23:17.431Z,16.74
2018-06-03T03:25:28.561Z,16.67
2018-06-03T03:27:39.681Z,16.60
2018-06-03T03:29:50.874Z,16.53
2018-06-03T03:32:01.947Z,16.44
2018-06-03T03:34:13.034Z,16.42
2018-06-03T03:36:24.150Z,16.45
2018-06-03T03:38:35.253Z,16.42
2018-06-03T03:40:46.430Z,16.43
2018-06-03T03:42:57.588Z,16.47
2018-06-03T03:45:08.797Z,16.53
2018-06-03T03:47:19.930Z,16.55
2018-06-03T03:49:31.093Z,16.56
2018-06-03T03:51:42.210Z,16.57
2018-06-03T03:53:53.341Z,16.59
2018-06-03T03:56:04.428Z,16.60
2018-06-03T03:58:15.494Z,16.58
2018-06-03T04:00:26.640Z,16.52
2018-06-03T04:02:37.686Z,16.49
2018-06-03T04:04:48.874Z,16.52
2018-06-03T04:07:00.099Z,16.56
2018-06-03T04:09:11.240Z,16.62
2018-06-03T04:11:22.388Z,16.74
2018-06-03T04:13:33.467Z,16.82
2018-06-03T04:15:44.658Z,16.85
2018-06-03T04:17:55.731Z,16.87
2018-06-03T04:20:06.866Z,16.86
2018-06-03T04:22:18.135Z,16.86
2018-06-03T04:24:29.271Z,16.90
2018-06-03T04:26:40.408Z,16.98
2018-06-03T04:28:51.520Z,17.11
2018-06-03T04:31:02.815Z,17.19
2018-06-03T04:33:13.899Z,17.30
2018-06-03T04:35:25.001Z,17.34
2018-06-03T04:37:36.094Z,17.33
2018-06-03T04:39:47.170Z,17.30
2018-06-03T04:41:58.295Z,17.28
2018-06-03T04:44:09.389Z,17.28
2018-06-03T04:46:20.496Z,17.30
2018-06-03T04:48:31.583Z,17.40
2018-06-03T04:50:42.684Z,17.55
2018-06-03T04:52:53.769Z,17.71
2018-06-03T04:55:04.920Z,17.87
2018-06-03T04:57:15.964Z,17.93
2018-06-03T04:59:27.066Z,17.99
2018-06-03T05:01:38.150Z,18.01
2018-06-03T05:03:49.243Z,18.05
2018-06-03T05:06:00.370Z,18.13
2018-06-03T05:08:11.508Z,18.24
2018-06-03T05:10:22.690Z,18.33
2018-06-03T05:12:33.736Z,18.45
2018-06-03T05:14:44.932Z,18.54
2018-06-03T05:16:56.001Z,18.60
2018-06-03T05:19:07.138Z,18.68
2018-06-03T05:21:18.289Z,18.76
2018-06-03T05:23:29.413Z,18.87
2018-06-03T05:25:40.635Z,18.95
2018-06-03T05:27:51.732Z,19.05
2018-06-03T05:30:02.991Z,19.18
2018-06-03T05:32:14.091Z,19.22
2018-06-03T05:34:25.143Z,19.17
2018-06-03T05:36:36.227Z,19.14
2018-06-03T05:38:47.312Z,19.11
2018-06-03T05:40:58.464Z,19.22
2018-06-03T05:43:09.558Z,19.36
2018-06-03T05:45:20.663Z,19.54
2018-06-03T05:47:31.771Z,19.69
2018-06-03T05:49:42.906Z,19.79
2018-06-03T05:51:53.979Z,19.85
2018-06-03T05:54:05.072Z,20.00
2018-06-03T05:56:16.191Z,20.14
2018-06-03T05:59:05.855Z,19.95
2018-06-03T06:01:18.246Z,20.03
2018-06-03T06:03:30.831Z,20.17
2018-06-03T06:05:43.232Z,20.28
2018-06-03T06:07:55.655Z,20.36
2018-06-03T06:10:08.077Z,20.49
2018-06-03T06:12:20.519Z,20.64
2018-06-03T06:14:33.000Z,20.75
2018-06-03T06:16:45.410Z,20.85
2018-06-03T06:18:57.811Z,21.00
2018-06-03T06:21:10.237Z,21.11
2018-06-03T06:23:22.698Z,21.25
2018-06-03T06:25:35.050Z,21.40
2018-06-03T06:27:47.622Z,21.51
2018-06-03T06:30:00.262Z,21.66
2018-06-03T06:32:12.716Z,21.48
2018-06-03T06:34:25.091Z,21.52
2018-06-03T06:36:37.486Z,21.62
2018-06-03T06:38:49.932Z,21.72
2018-06-03T06:41:02.317Z,21.82
2018-06-03T06:43:14.707Z,21.99
2018-06-03T06:45:27.108Z,22.23
2018-06-03T06:47:39.508Z,22.51
2018-06-03T06:49:51.911Z,22.76
2018-06-03T06:52:04.663Z,22.98
2018-06-03T06:54:17.048Z,23.21
2018-06-03T06:56:29.427Z,23.44
2018-06-03T06:58:41.850Z,23.54
2018-06-03T07:00:54.319Z,23.36
2018-06-03T07:03:06.812Z,23.37
2018-06-03T07:05:19.194Z,23.50
2018-06-03T07:07:31.543Z,23.78
2018-06-03T07:09:43.927Z,23.98
2018-06-03T07:11:56.332Z,24.25
2018-06-03T07:14:08.860Z,24.58
2018-06-03T07:16:21.237Z,24.84
2018-06-03T07:18:33.812Z,25.01
2018-06-03T07:20:46.311Z,25.15
2018-06-03T07:22:58.944Z,25.33
2018-06-03T07:25:11.351Z,25.33
2018-06-03T07:27:23.763Z,25.41
2018-06-03T07:29:36.126Z,25.58
2018-06-03T07:31:48.804Z,25.79
2018-06-03T07:34:01.191Z,25.95
2018-06-03T07:36:13.603Z,26.13
2018-06-03T07:38:25.982Z,26.33
2018-06-03T07:40:38.472Z,26.35
2018-06-03T07:42:50.955Z,26.46
2018-06-03T07:45:03.392Z,26.55
2018-06-03T07:47:15.787Z,26.61
2018-06-03T07:49:28.182Z,26.74
2018-06-03T07:51:40.567Z,26.84
2018-06-03T07:53:53.087Z,26.91
2018-06-03T07:56:05.475Z,26.94
2018-06-03T07:58:17.911Z,26.90
2018-06-03T08:00:30.372Z,26.75
2018-06-03T08:02:42.814Z,26.86
2018-06-03T08:04:55.387Z,26.96
2018-06-03T08:07:08.006Z,27.14
2018-06-03T08:09:20.520Z,27.23
2018-06-03T08:11:32.896Z,27.27
2018-06-03T08:13:45.516Z,27.30
2018-06-03T08:15:57.823Z,27.37
2018-06-03T08:18:10.307Z,27.37
2018-06-03T08:20:22.846Z,27.48
2018-06-03T08:22:35.182Z,27.59
2018-06-03T08:24:47.783Z,27.65
2018-06-03T08:27:00.178Z,27.54
2018-06-03T08:29:12.611Z,27.63
2018-06-03T08:31:25.085Z,27.65
2018-06-03T08:33:37.458Z,27.74
2018-06-03T08:35:49.970Z,27.76
2018-06-03T08:38:02.310Z,27.72
2018-06-03T08:40:14.727Z,27.88
2018-06-03T08:42:27.323Z,27.87
2018-06-03T08:44:39.696Z,27.95
2018-06-03T08:46:52.135Z,27.90
2018-06-03T08:49:04.508Z,27.99
2018-06-03T08:51:17.027Z,28.00
2018-06-03T08:53:29.510Z,28.04
2018-06-03T08:55:41.879Z,28.12
2018-06-03T08:57:54.231Z,28.18
2018-06-03T09:00:06.603Z,28.26
2018-06-03T09:02:19.257Z,28.07
2018-06-03T09:04:31.611Z,28.12
2018-06-03T09:06:44.027Z,28.15
2018-06-03T09:08:56.441Z,28.26
2018-06-03T09:11:08.881Z,28.40
2018-06-03T09:13:21.309Z,28.44
2018-06-03T09:15:33.762Z,28.56
2018-06-03T09:17:46.255Z,28.42
2018-06-03T09:19:58.669Z,28.44
2018-06-03T09:22:11.087Z,28.50
2018-06-03T09:24:23.579Z,28.53
2018-06-03T09:26:36.143Z,28.53
2018-06-03T09:28:48.587Z,28.62
2018-06-03T09:31:08.668Z,28.73
2018-06-03T09:33:21.121Z,28.86
2018-06-03T09:35:33.594Z,28.93
2018-06-03T09:37:45.963Z,29.09
2018-06-03T09:39:58.342Z,29.23
2018-06-03T09:42:10.714Z,29.18
2018-06-03T09:44:23.244Z,29.28
2018-06-03T09:46:35.586Z,29.45
2018-06-03T09:48:48.105Z,29.45
2018-06-03T09:51:00.610Z,29.52
2018-06-03T09:53:13.082Z,29.53
2018-06-03T09:55:25.497Z,29.24
2018-06-03T09:57:37.910Z,29.18
2018-06-03T09:59:50.332Z,29.39
2018-06-03T10:02:02.824Z,29.51
2018-06-03T10:04:15.304Z,29.64
2018-06-03T10:06:27.757Z,29.87
2018-06-03T10:08:40.126Z,29.99
2018-06-03T10:10:52.530Z,30.02
2018-06-03T10:13:04.955Z,29.70
2018-06-03T10:15:17.363Z,29.28
2018-06-03T10:17:29.810Z,29.24
2018-06-03T10:19:42.288Z,29.45
2018-06-03T10:21:54.696Z,29.75
2018-06-03T10:24:07.059Z,29.93
2018-06-03T10:26:19.486Z,29.99
2018-06-03T10:28:31.926Z,30.01
2018-06-03T10:30:44.319Z,30.10
2018-06-03T10:32:56.722Z,30.08
2018-06-03T10:35:09.162Z,30.08
2018-06-03T10:37:21.653Z,30.25
2018-06-03T10:39:34.112Z,30.47
2018-06-03T10:41:46.549Z,30.50
2018-06-03T10:43:58.948Z,30.05
2018-06-03T10:46:11.399Z,29.55
2018-06-03T10:48:23.861Z,29.20
2018-06-03T10:50:36.227Z,28.75
2018-06-03T10:52:48.615Z,28.37
2018-06-03T10:55:01.010Z,28.25
2018-06-03T10:57:13.471Z,28.12
2018-06-03T10:59:25.881Z,27.95
2018-06-03T11:01:38.284Z,28.01
2018-06-03T11:03:50.674Z,28.08
2018-06-03T11:06:03.189Z,27.99
2018-06-03T11:08:15.623Z,27.88
2018-06-03T11:10:28.138Z,27.84
2018-06-03T11:12:40.536Z,27.80
2018-06-03T11:14:52.979Z,27.72
2018-06-03T11:17:05.407Z,27.85
2018-06-03T11:19:17.911Z,28.28
2018-06-03T11:21:30.328Z,28.68
2018-06-03T11:23:42.688Z,29.00
2018-06-03T11:25:55.092Z,29.25
2018-06-03T11:28:07.499Z,29.53
2018-06-03T11:30:20.008Z,29.79
2018-06-03T11:32:32.426Z,29.90
2018-06-03T11:34:44.905Z,29.95
2018-06-03T11:36:57.363Z,30.01
2018-06-03T11:39:09.783Z,30.09
2018-06-03T11:41:22.134Z,30.11
2018-06-03T11:43:34.633Z,30.01
2018-06-03T11:45:47.064Z,29.76
2018-06-03T11:47:59.455Z,29.55
2018-06-03T11:50:11.999Z,29.25
2018-06-03T11:52:24.431Z,29.03
2018-06-03T11:54:36.914Z,28.78
2018-06-03T11:56:59.876Z,28.59
2018-06-03T11:59:23.604Z,28.44
2018-06-03T12:01:36.186Z,28.32
2018-06-03T12:03:48.671Z,28.24
2018-06-03T12:06:01.069Z,28.36
2018-06-03T12:08:13.513Z,28.66
2018-06-03T12:10:26.033Z,29.01
2018-06-03T12:12:39.322Z,29.18
2018-06-03T12:14:51.774Z,29.39
2018-06-03T12:17:04.216Z,29.48
2018-06-03T12:19:16.643Z,29.60
2018-06-03T12:21:29.755Z,29.71
2018-06-03T12:23:42.189Z,29.56
2018-06-03T12:25:54.639Z,29.39
2018-06-03T12:28:07.080Z,29.22
2018-06-03T12:30:19.511Z,29.12
2018-06-03T12:32:31.887Z,28.99
2018-06-03T12:34:44.233Z,29.10
2018-06-03T12:36:56.656Z,29.30
2018-06-03T12:39:09.563Z,29.44
2018-06-03T12:41:22.030Z,29.61
2018-06-03T12:43:34.507Z,29.76
2018-06-03T12:45:46.898Z,29.73
2018-06-03T12:47:59.391Z,29.67
2018-06-03T12:50:11.839Z,29.52
2018-06-03T12:52:24.288Z,29.57
2018-06-03T12:54:36.714Z,29.42
2018-06-03T12:56:49.212Z,29.41
2018-06-03T12:59:01.671Z,29.41
2018-06-03T13:01:14.074Z,29.22
2018-06-03T13:03:26.512Z,29.11
2018-06-03T13:05:38.941Z,29.14
2018-06-03T13:07:51.365Z,29.02
2018-06-03T13:10:03.811Z,29.01
2018-06-03T13:12:16.193Z,29.09
2018-06-03T13:14:28.658Z,29.14
2018-06-03T13:16:41.085Z,29.21
2018-06-03T13:18:53.554Z,29.29
2018-06-03T13:21:05.886Z,29.44
2018-06-03T13:23:18.385Z,29.60
2018-06-03T13:25:30.799Z,29.69
2018-06-03T13:27:43.265Z,29.75
2018-06-03T13:29:55.804Z,29.80
2018-06-03T13:32:08.290Z,29.77
2018-06-03T13:34:20.693Z,29.59
2018-06-03T13:36:33.072Z,29.61
2018-06-03T13:38:45.518Z,29.60
2018-06-03T13:40:58.019Z,29.57
2018-06-03T13:43:10.438Z,29.58
2018-06-03T13:45:22.914Z,29.64
2018-06-03T13:47:35.307Z,29.68
2018-06-03T13:49:47.733Z,29.60
2018-06-03T13:52:00.156Z,29.66
2018-06-03T13:54:12.602Z,29.71
2018-06-03T13:56:25.056Z,29.68
2018-06-03T13:58:37.399Z,29.65
2018-06-03T14:00:49.827Z,29.66
2018-06-03T14:03:02.211Z,29.66
2018-06-03T14:05:14.676Z,29.54
2018-06-03T14:07:27.041Z,29.29
2018-06-03T14:09:39.535Z,29.34
2018-06-03T14:11:51.974Z,29.43
2018-06-03T14:14:04.460Z,29.45
2018-06-03T14:16:16.963Z,29.43
2018-06-03T14:18:29.359Z,29.52
2018-06-03T14:20:41.866Z,29.62
2018-06-03T14:22:54.255Z,29.59
2018-06-03T14:25:06.623Z,29.58
2018-06-03T14:27:19.075Z,29.64
2018-06-03T14:29:31.428Z,29.62
2018-06-03T14:31:43.894Z,29.54
2018-06-03T14:33:56.258Z,29.34
2018-06-03T14:36:08.671Z,29.36
2018-06-03T14:38:21.087Z,29.40
2018-06-03T14:40:33.451Z,29.42
2018-06-03T14:42:45.884Z,29.46
2018-06-03T14:44:58.281Z,29.58
2018-06-03T14:47:10.733Z,29.56
2018-06-03T14:49:23.092Z,29.46
2018-06-03T14:51:35.486Z,29.51
2018-06-03T14:53:47.959Z,29.65
2018-06-03T14:56:00.386Z,29.64
2018-06-03T14:58:12.867Z,29.56
2018-06-03T15:00:25.245Z,29.47
2018-06-03T15:02:37.674Z,29.32
2018-06-03T15:04:50.170Z,29.23
2018-06-03T15:07:02.653Z,29.16
2018-06-03T15:09:15.020Z,29.02
2018-06-03T15:11:27.368Z,28.97
2018-06-03T15:13:39.790Z,29.01
2018-06-03T15:15:52.236Z,29.01
2018-06-03T15:18:04.744Z,29.06
2018-06-03T15:20:17.184Z,29.14
2018-06-03T15:22:29.632Z,29.11
2018-06-03T15:24:42.061Z,29.08
2018-06-03T15:26:54.483Z,28.97
2018-06-03T15:29:06.941Z,28.95
2018-06-03T15:31:19.303Z,28.88
2018-06-03T15:33:31.678Z,28.80
2018-06-03T15:35:44.175Z,28.80
2018-06-03T15:37:56.734Z,28.80
2018-06-03T15:40:09.155Z,28.77
2018-06-03T15:42:21.516Z,28.83
2018-06-03T15:44:33.903Z,28.84
2018-06-03T15:46:46.320Z,28.87
2018-06-03T15:48:58.797Z,28.87
2018-06-03T15:51:11.489Z,28.82
2018-06-03T15:53:24.075Z,28.76
2018-06-03T15:55:36.725Z,28.74
2018-06-03T15:57:49.095Z,28.69
2018-06-03T16:00:01.499Z,28.73
2018-06-03T16:02:13.923Z,28.70
2018-06-03T16:04:26.362Z,28.68
2018-06-03T16:06:38.883Z,28.68
2018-06-03T16:08:51.323Z,28.71
2018-06-03T16:11:03.715Z,28.76
2018-06-03T16:13:16.165Z,28.76
2018-06-03T16:15:28.615Z,28.78
2018-06-03T16:17:41.123Z,28.79
2018-06-03T16:19:53.556Z,28.71
2018-06-03T16:22:05.924Z,28.66
2018-06-03T16:24:18.412Z,28.66
2018-06-03T16:26:30.830Z,28.68
2018-06-03T16:28:43.290Z,28.69
2018-06-03T16:30:55.719Z,28.66
2018-06-03T16:33:08.108Z,28.71
2018-06-03T16:35:20.578Z,28.68
2018-06-03T16:37:32.968Z,28.68
2018-06-03T16:39:45.345Z,28.64
2018-06-03T16:41:57.677Z,28.59
2018-06-03T16:44:10.191Z,28.60
2018-06-03T16:46:22.679Z,28.69
2018-06-03T16:48:35.160Z,28.67
2018-06-03T16:50:47.582Z,28.71
2018-06-03T16:53:00.035Z,28.78
2018-06-03T16:55:12.468Z,28.86
2018-06-03T16:57:24.843Z,28.87
2018-06-03T16:59:37.384Z,28.80
2018-06-03T17:01:49.740Z,28.85
2018-06-03T17:04:02.109Z,28.77
2018-06-03T17:06:14.506Z,28.63
2018-06-03T17:08:26.851Z,28.48
2018-06-03T17:10:39.248Z,28.42
2018-06-03T17:12:51.644Z,28.29
2018-06-03T17:15:04.225Z,28.27
2018-06-03T17:17:16.600Z,28.21
2018-06-03T17:19:29.454Z,28.19
2018-06-03T17:21:41.856Z,28.08
2018-06-03T17:23:54.294Z,28.02
2018-06-03T17:26:06.699Z,28.02
2018-06-03T17:28:19.142Z,28.02
2018-06-03T17:30:31.514Z,28.00
2018-06-03T17:32:43.967Z,27.91
2018-06-03T17:34:56.318Z,27.86
2018-06-03T17:37:08.719Z,27.85
2018-06-03T17:39:21.112Z,27.87
2018-06-03T17:41:33.463Z,27.89
2018-06-03T17:43:45.880Z,27.84
2018-06-03T17:45:58.355Z,27.81
2018-06-03T17:48:10.793Z,27.78
2018-06-03T17:50:23.284Z,27.72
2018-06-03T17:52:35.722Z,27.67
2018-06-03T17:54:48.185Z,27.67
2018-06-03T17:57:00.574Z,27.67
2018-06-03T17:59:13.002Z,27.61
2018-06-03T18:01:25.458Z,27.53
2018-06-03T18:03:37.803Z,27.49
2018-06-03T18:05:50.154Z,27.48
2018-06-03T18:08:02.715Z,27.40
2018-06-03T18:10:15.127Z,27.36
2018-06-03T18:12:27.536Z,27.36
2018-06-03T18:14:39.955Z,27.34
2018-06-03T18:16:52.425Z,27.35
2018-06-03T18:19:05.086Z,27.35
2018-06-03T18:21:17.509Z,27.34
2018-06-03T18:23:29.946Z,27.29
2018-06-03T18:25:42.327Z,27.25
2018-06-03T18:27:54.789Z,27.23
2018-06-03T18:30:07.239Z,27.21
2018-06-03T18:32:19.736Z,27.24
2018-06-03T18:34:32.110Z,27.20
2018-06-03T18:36:44.552Z,27.18
2018-06-03T18:38:56.880Z,27.13
2018-06-03T18:41:09.328Z,27.11
2018-06-03T18:43:21.779Z,27.03
2018-06-03T18:45:34.227Z,26.97
2018-06-03T18:47:46.675Z,26.87
2018-06-03T18:49:59.044Z,26.83
2018-06-03T18:52:11.492Z,26.73
2018-06-03T18:54:23.915Z,26.55
2018-06-03T18:56:36.263Z,26.39
2018-06-03T18:58:48.811Z,26.25
2018-06-03T19:01:01.228Z,26.12
2018-06-03T19:03:13.825Z,25.98
2018-06-03T19:05:26.383Z,25.78
2018-06-03T19:07:38.791Z,25.66
2018-06-03T19:09:51.350Z,25.58
2018-06-03T19:12:03.986Z,25.46
2018-06-03T19:14:16.562Z,25.37
2018-06-03T19:16:28.984Z,25.35
2018-06-03T19:18:41.527Z,25.29
2018-06-03T19:20:54.078Z,25.19
2018-06-03T19:23:06.589Z,25.08
2018-06-03T19:25:19.091Z,24.95
2018-06-03T19:27:31.573Z,24.79
2018-06-03T19:29:44.027Z,24.66
2018-06-03T19:31:56.473Z,24.56
2018-06-03T19:34:09.017Z,24.46
2018-06-03T19:36:21.517Z,24.32
2018-06-03T19:38:34.098Z,24.22
2018-06-03T19:40:46.532Z,24.16
2018-06-03T19:42:59.045Z,24.01
2018-06-03T19:45:11.548Z,23.86
2018-06-03T19:47:24.003Z,23.73
2018-06-03T19:49:36.575Z,23.65
2018-06-03T19:51:48.948Z,23.59
2018-06-03T19:54:01.319Z,23.46
2018-06-03T19:56:13.768Z,23.32
2018-06-03T19:58:26.206Z,23.25
2018-06-03T20:00:38.609Z,23.17
2018-06-03T20:02:51.080Z,23.09
2018-06-03T20:05:03.544Z,23.13
2018-06-03T20:07:16.053Z,23.08
2018-06-03T20:09:28.497Z,23.06
2018-06-03T20:11:40.879Z,23.00
2018-06-03T20:13:53.366Z,22.90
2018-06-03T20:16:05.827Z,22.81
2018-06-03T20:18:18.462Z,22.76
2018-06-03T20:20:30.847Z,22.67
2018-06-03T20:22:43.214Z,22.60
2018-06-03T20:24:55.635Z,22.56
2018-06-03T20:27:08.105Z,22.49
2018-06-03T20:29:20.596Z,22.44
2018-06-03T20:31:33.080Z,22.39
2018-06-03T20:33:45.512Z,22.32
2018-06-03T20:35:59.101Z,22.27
2018-06-03T20:38:11.553Z,22.24
2018-06-03T21:15:16.088Z,21.28
2018-06-03T21:17:41.092Z,21.17
2018-06-03T21:20:08.093Z,21.11
2018-06-03T21:22:33.054Z,21.03
2018-06-03T21:24:46.186Z,20.96
2018-06-03T21:26:58.543Z,20.97
2018-06-03T21:29:10.989Z,20.99
2018-06-03T21:31:23.412Z,21.02
2018-06-03T21:33:35.873Z,21.08
2018-06-03T21:35:48.263Z,21.04
2018-06-03T21:38:00.654Z,21.06
2018-06-03T21:40:13.088Z,21.07
2018-06-03T21:42:25.544Z,21.06
2018-06-03T21:44:38.174Z,21.01
2018-06-03T21:46:50.564Z,20.99
2018-06-03T21:49:02.910Z,20.98
2018-06-03T21:51:15.407Z,20.90
2018-06-03T21:53:27.721Z,20.79
2018-06-03T21:55:40.109Z,20.64
2018-06-03T21:57:52.470Z,20.50
2018-06-03T22:00:05.609Z,20.52
2018-06-03T22:02:18.282Z,20.53
2018-06-03T22:04:30.692Z,20.53
2018-06-03T22:06:43.121Z,20.53
2018-06-03T22:08:55.522Z,20.51
2018-06-03T22:11:07.935Z,20.49
2018-06-03T22:13:20.278Z,20.43
2018-06-03T22:15:32.773Z,20.37
2018-06-03T22:17:45.198Z,20.36
2018-06-03T22:19:57.603Z,20.27
2018-06-03T22:22:10.102Z,20.22
2018-06-03T22:24:22.580Z,20.19
2018-06-03T22:26:35.011Z,20.22
2018-06-03T22:28:47.396Z,20.21
2018-06-03T22:30:59.955Z,20.18
2018-06-03T22:33:12.362Z,20.21
2018-06-03T22:35:24.882Z,20.24
2018-06-03T22:37:37.262Z,20.22
2018-06-03T22:39:49.641Z,20.20
2018-06-03T22:42:02.006Z,20.18
2018-06-03T22:44:14.396Z,20.13
2018-06-03T22:46:26.838Z,20.07
2018-06-03T22:48:39.526Z,19.97
2018-06-03T22:50:51.871Z,19.82
2018-06-03T22:53:04.333Z,19.76
2018-06-03T22:55:16.743Z,19.74
2018-06-03T22:57:41.699Z,19.73
2018-06-03T22:59:54.138Z,19.70
2018-06-03T23:02:06.591Z,19.70
2018-06-03T23:04:19.019Z,19.69
2018-06-03T23:06:31.588Z,19.70
2018-06-03T23:08:43.976Z,19.68
2018-06-03T23:10:56.379Z,19.66
2018-06-03T23:13:08.814Z,19.61
2018-06-03T23:15:21.164Z,19.57
2018-06-03T23:17:33.561Z,19.56
2018-06-03T23:19:45.948Z,19.55
2018-06-03T23:21:58.374Z,19.52
2018-06-03T23:24:10.760Z,19.46
2018-06-03T23:26:23.180Z,19.45
2018-06-03T23:28:35.588Z,19.46
2018-06-03T23:30:48.768Z,19.47
2018-06-03T23:33:01.225Z,19.44
2018-06-03T23:35:13.604Z,19.44
2018-06-03T23:37:26.125Z,19.47
2018-06-03T23:39:38.519Z,19.48
2018-06-03T23:41:50.938Z,19.38
2018-06-03T23:44:03.420Z,19.30
2018-06-03T23:46:15.808Z,19.25
2018-06-03T23:48:28.272Z,19.19
2018-06-03T23:50:40.678Z,19.13
2018-06-03T23:52:53.118Z,19.07
2018-06-03T23:55:05.547Z,18.95
2018-06-03T23:57:17.995Z,18.86
2018-06-03T23:59:30.446Z,18.79
